createdAt,value
2019-05-13T16:59:52.377Z,58.60
2019-05-13T18:30:41.037Z,54.20
2019-05-13T18:33:08.733Z,54.40
2019-05-13T18:35:36.386Z,55.10
2019-05-13T18:38:03.960Z,55.60
2019-05-13T18:40:31.704Z,55.50
2019-05-13T18:43:01.715Z,56.80
2019-05-13T18:45:30.397Z,54.80
2019-05-13T18:47:58.385Z,53.70
2019-05-13T18:50:26.536Z,53.70
2019-05-13T18:52:54.175Z,53.60
2019-05-13T18:55:22.411Z,54.90
2019-05-13T18:57:51.836Z,54.50
2019-05-13T19:00:21.712Z,54.80
2019-05-13T19:02:49.428Z,54.00
2019-05-13T19:05:21.257Z,53.60
2019-05-13T19:07:51.110Z,54.10
2019-05-13T19:10:18.487Z,54.10
2019-05-13T19:12:46.312Z,55.00
2019-05-13T19:15:16.390Z,55.10
2019-05-13T19:17:44.197Z,53.90
2019-05-13T19:20:12.360Z,54.00
2019-05-13T19:22:41.295Z,54.50
2019-05-13T19:25:11.693Z,54.90
2019-05-13T19:27:41.122Z,55.30
2019-05-13T19:30:08.487Z,54.50
2019-05-13T19:32:36.213Z,55.30
2019-05-13T19:35:07.170Z,55.10
2019-05-13T19:37:37.871Z,55.00
2019-05-13T19:40:05.753Z,55.30
2019-05-13T19:42:34.991Z,55.60
2019-05-13T19:45:03.266Z,55.40
2019-05-13T19:47:31.155Z,55.30
2019-05-13T19:50:01.851Z,56.50
2019-05-13T19:52:28.189Z,56.70
2019-05-13T19:54:56.078Z,56.50
2019-05-13T19:57:24.432Z,56.20
2019-05-13T20:02:42.047Z,55.50
2019-05-13T20:05:09.316Z,55.30
2019-05-13T20:07:36.951Z,55.00
2019-05-13T20:10:11.868Z,55.50
2019-05-13T20:12:41.809Z,55.50
2019-05-13T20:15:11.743Z,56.60
2019-05-13T20:17:41.608Z,56.30
2019-05-13T20:20:12.337Z,55.00
2019-05-13T20:22:42.137Z,55.00
2019-05-13T20:25:12.995Z,55.70
2019-05-13T20:27:42.151Z,54.90
2019-05-13T20:30:11.446Z,56.80
2019-05-13T20:32:40.210Z,54.70
2019-05-13T20:35:07.925Z,53.70
2019-05-13T20:37:35.583Z,54.90
2019-05-13T20:40:03.546Z,54.40
2019-05-13T20:42:31.130Z,54.80
2019-05-13T20:44:58.755Z,54.30
2019-05-13T20:47:26.337Z,55.00
2019-05-13T20:50:01.565Z,54.10
2019-05-13T20:52:23.510Z,54.70
2019-05-13T20:54:51.260Z,54.20
2019-05-13T20:57:18.808Z,54.30
2019-05-13T20:59:46.465Z,54.70
2019-05-13T21:02:15.172Z,55.60
2019-05-13T21:04:42.837Z,56.10
2019-05-13T21:07:10.582Z,58.80
2019-05-13T21:09:38.201Z,59.30
2019-05-13T21:12:05.760Z,61.50
2019-05-13T21:14:34.448Z,63.40
2019-05-13T21:17:02.719Z,64.40
2019-05-13T21:19:39.227Z,63.20
2019-05-13T21:21:59.728Z,65.00
2019-05-13T21:24:27.734Z,65.70
2019-05-13T21:26:55.595Z,65.70
2019-05-13T21:29:23.224Z,67.10
2019-05-13T21:31:52.827Z,67.00
2019-05-13T21:34:21.108Z,67.50
2019-05-13T21:36:51.571Z,69.00
2019-05-13T21:39:18.698Z,68.20
2019-05-13T21:41:46.297Z,68.80
2019-05-13T21:44:13.993Z,67.30
2019-05-13T21:46:41.962Z,68.10
2019-05-13T21:49:11.938Z,66.30
2019-05-13T21:51:41.778Z,67.10
2019-05-13T21:54:11.593Z,66.70
2019-05-13T21:56:38.724Z,62.10
2019-05-13T21:59:06.432Z,59.30
2019-05-13T22:01:34.471Z,59.40
2019-05-13T22:04:02.134Z,62.30
2019-05-13T22:06:32.085Z,61.00
2019-05-13T22:08:59.323Z,60.40
2019-05-13T22:11:27.038Z,57.00
2019-05-13T22:13:54.768Z,57.70
2019-05-13T22:16:22.566Z,67.40
2019-05-13T22:18:52.416Z,71.40
2019-05-13T22:21:20.143Z,68.80
2019-05-13T22:23:47.783Z,69.00
2019-05-13T22:26:15.976Z,62.60
2019-05-13T22:28:43.571Z,62.80
2019-05-13T22:31:11.659Z,66.90
2019-05-13T22:33:41.277Z,67.70
2019-05-13T22:36:08.948Z,64.60
2019-05-13T22:38:36.700Z,66.20
2019-05-13T22:41:04.409Z,68.60
2019-05-13T22:43:32.357Z,69.70
2019-05-13T22:46:00.069Z,70.50
2019-05-13T22:48:27.695Z,68.10
2019-05-13T22:50:55.379Z,69.70
2019-05-13T22:53:22.970Z,70.10
2019-05-13T22:55:52.144Z,59.00
2019-05-13T22:58:22.338Z,71.00
2019-05-13T23:00:51.704Z,68.00
2019-05-13T23:03:19.243Z,65.80
2019-05-13T23:05:47.064Z,65.00
2019-05-13T23:08:14.706Z,67.80
2019-05-13T23:10:42.384Z,60.10
2019-05-13T23:13:10.073Z,63.80
2019-05-13T23:15:37.787Z,60.90
2019-05-13T23:18:05.446Z,58.10
2019-05-13T23:20:33.169Z,55.30
2019-05-13T23:23:01.263Z,55.80
2019-05-13T23:25:29.063Z,58.80
2019-05-13T23:27:56.661Z,54.60
2019-05-13T23:30:24.299Z,55.60
2019-05-13T23:32:51.969Z,55.80
2019-05-13T23:35:21.521Z,50.20
2019-05-13T23:37:50.936Z,51.20
2019-05-13T23:40:18.680Z,51.20
2019-05-13T23:42:46.482Z,51.30
2019-05-13T23:45:14.212Z,51.30
2019-05-13T23:47:41.887Z,53.10
2019-05-13T23:50:09.770Z,52.70
2019-05-13T23:52:37.450Z,52.40
2019-05-13T23:55:06.034Z,52.90
2019-05-13T23:57:33.832Z,51.20
